sensor_id;sensor_type;location;lat;lon;timestamp;temperature;humidity
43561;DHT22;32305;46.410;17.394;2023-04-21T00:00:59;22.40;43.50
43561;DHT22;32305;46.410;17.394;2023-04-21T00:03:27;22.30;43.50
43561;DHT22;32305;46.410;17.394;2023-04-21T00:05:56;22.40;43.50
43561;DHT22;32305;46.410;17.394;2023-04-21T00:08:24;22.30;43.50
43561;DHT22;32305;46.410;17.394;2023-04-21T00:10:54;22.30;43.50
43561;DHT22;32305;46.410;17.394;2023-04-21T00:13:22;22.30;43.50
43561;DHT22;32305;46.410;17.394;2023-04-21T00:15:49;22.30;43.60
43561;DHT22;32305;46.410;17.394;2023-04-21T00:18:17;22.30;43.60
43561;DHT22;32305;46.410;17.394;2023-04-21T00:20:44;22.30;43.60
43561;DHT22;32305;46.410;17.394;2023-04-21T00:23:11;22.30;43.60
43561;DHT22;32305;46.410;17.394;2023-04-21T00:25:38;22.30;43.60
43561;DHT22;32305;46.410;17.394;2023-04-21T00:28:05;22.30;43.50
43561;DHT22;32305;46.410;17.394;2023-04-21T00:30:32;22.30;43.50
43561;DHT22;32305;46.410;17.394;2023-04-21T00:33:00;22.30;43.40
43561;DHT22;32305;46.410;17.394;2023-04-21T00:35:27;22.30;43.40
43561;DHT22;32305;46.410;17.394;2023-04-21T00:37:54;22.30;43.40
43561;DHT22;32305;46.410;17.394;2023-04-21T00:40:21;22.30;43.40
43561;DHT22;32305;46.410;17.394;2023-04-21T00:42:48;22.30;43.40
43561;DHT22;32305;46.410;17.394;2023-04-21T00:45:16;22.30;43.40
43561;DHT22;32305;46.410;17.394;2023-04-21T00:47:43;22.30;43.40
43561;DHT22;32305;46.410;17.394;2023-04-21T00:50:11;22.30;43.40
43561;DHT22;32305;46.410;17.394;2023-04-21T00:52:39;22.30;43.50
43561;DHT22;32305;46.410;17.394;2023-04-21T00:55:07;22.30;43.50
43561;DHT22;32305;46.410;17.394;2023-04-21T00:57:35;22.30;43.50
43561;DHT22;32305;46.410;17.394;2023-04-21T01:00:05;22.30;43.50
43561;DHT22;32305;46.410;17.394;2023-04-21T01:02:35;22.30;43.50
43561;DHT22;32305;46.410;17.394;2023-04-21T01:05:07;22.20;43.50
43561;DHT22;32305;46.410;17.394;2023-04-21T01:07:35;22.20;43.50
43561;DHT22;32305;46.410;17.394;2023-04-21T01:10:03;22.20;43.50
43561;DHT22;32305;46.410;17.394;2023-04-21T01:12:30;22.20;43.50
43561;DHT22;32305;46.410;17.394;2023-04-21T01:14:58;22.20;43.50
43561;DHT22;32305;46.410;17.394;2023-04-21T01:17:25;22.20;43.50
43561;DHT22;32305;46.410;17.394;2023-04-21T01:19:55;22.20;43.50
43561;DHT22;32305;46.410;17.394;2023-04-21T01:22:22;22.20;43.50
43561;DHT22;32305;46.410;17.394;2023-04-21T01:24:49;22.20;43.50
43561;DHT22;32305;46.410;17.394;2023-04-21T01:27:19;22.10;43.50
43561;DHT22;32305;46.410;17.394;2023-04-21T01:29:49;22.20;43.50
43561;DHT22;32305;46.410;17.394;2023-04-21T01:32:19;22.20;43.50
43561;DHT22;32305;46.410;17.394;2023-04-21T01:34:47;22.20;43.60
43561;DHT22;32305;46.410;17.394;2023-04-21T01:37:18;22.20;43.50
43561;DHT22;32305;46.410;17.394;2023-04-21T01:39:50;22.20;43.50
43561;DHT22;32305;46.410;17.394;2023-04-21T01:42:22;22.20;43.50
43561;DHT22;32305;46.410;17.394;2023-04-21T01:44:51;22.20;43.50
43561;DHT22;32305;46.410;17.394;2023-04-21T01:47:20;22.20;43.60
43561;DHT22;32305;46.410;17.394;2023-04-21T01:49:47;22.10;43.50
43561;DHT22;32305;46.410;17.394;2023-04-21T01:52:14;22.10;43.50
43561;DHT22;32305;46.410;17.394;2023-04-21T01:54:42;22.10;43.50
43561;DHT22;32305;46.410;17.394;2023-04-21T01:57:09;22.10;43.50
43561;DHT22;32305;46.410;17.394;2023-04-21T01:59:36;22.10;43.60
43561;DHT22;32305;46.410;17.394;2023-04-21T02:02:04;22.10;43.60
43561;DHT22;32305;46.410;17.394;2023-04-21T02:04:31;22.10;43.60
43561;DHT22;32305;46.410;17.394;2023-04-21T02:06:58;22.10;43.60
43561;DHT22;32305;46.410;17.394;2023-04-21T02:09:26;22.10;43.60
43561;DHT22;32305;46.410;17.394;2023-04-21T02:11:55;22.10;43.60
43561;DHT22;32305;46.410;17.394;2023-04-21T02:14:26;22.10;43.60
43561;DHT22;32305;46.410;17.394;2023-04-21T02:16:53;22.10;43.60
43561;DHT22;32305;46.410;17.394;2023-04-21T02:19:22;22.10;43.50
43561;DHT22;32305;46.410;17.394;2023-04-21T02:21:49;22.10;43.50
43561;DHT22;32305;46.410;17.394;2023-04-21T02:24:16;22.10;43.50
43561;DHT22;32305;46.410;17.394;2023-04-21T02:26:44;22.10;43.40
43561;DHT22;32305;46.410;17.394;2023-04-21T02:29:11;22.10;43.50
43561;DHT22;32305;46.410;17.394;2023-04-21T02:31:38;22.10;43.50
43561;DHT22;32305;46.410;17.394;2023-04-21T02:34:24;22.10;43.50
43561;DHT22;32305;46.410;17.394;2023-04-21T02:36:51;22.10;43.50
43561;DHT22;32305;46.410;17.394;2023-04-21T02:39:19;22.10;43.50
43561;DHT22;32305;46.410;17.394;2023-04-21T02:41:46;22.10;43.40
43561;DHT22;32305;46.410;17.394;2023-04-21T02:44:13;22.10;43.50
43561;DHT22;32305;46.410;17.394;2023-04-21T02:46:41;22.10;43.50
43561;DHT22;32305;46.410;17.394;2023-04-21T02:49:09;22.00;43.40
43561;DHT22;32305;46.410;17.394;2023-04-21T02:51:36;22.00;43.50
43561;DHT22;32305;46.410;17.394;2023-04-21T02:54:03;22.00;43.40
43561;DHT22;32305;46.410;17.394;2023-04-21T02:56:31;22.00;43.50
43561;DHT22;32305;46.410;17.394;2023-04-21T02:59:00;22.00;44.00
43561;DHT22;32305;46.410;17.394;2023-04-21T03:01:27;22.00;43.40
43561;DHT22;32305;46.410;17.394;2023-04-21T03:03:54;22.00;43.40
43561;DHT22;32305;46.410;17.394;2023-04-21T03:06:22;22.00;43.40
43561;DHT22;32305;46.410;17.394;2023-04-21T03:08:49;22.00;43.40
43561;DHT22;32305;46.410;17.394;2023-04-21T03:11:16;22.00;43.40
43561;DHT22;32305;46.410;17.394;2023-04-21T03:13:43;22.00;43.40
43561;DHT22;32305;46.410;17.394;2023-04-21T03:16:11;22.00;43.50
43561;DHT22;32305;46.410;17.394;2023-04-21T03:18:39;22.00;43.40
43561;DHT22;32305;46.410;17.394;2023-04-21T03:21:06;22.00;43.40
43561;DHT22;32305;46.410;17.394;2023-04-21T03:23:33;22.00;43.40
43561;DHT22;32305;46.410;17.394;2023-04-21T03:26:06;22.00;43.40
43561;DHT22;32305;46.410;17.394;2023-04-21T03:28:33;22.00;43.40
43561;DHT22;32305;46.410;17.394;2023-04-21T03:31:00;22.00;43.40
43561;DHT22;32305;46.410;17.394;2023-04-21T03:33:28;22.00;43.50
43561;DHT22;32305;46.410;17.394;2023-04-21T03:35:55;22.00;43.50
43561;DHT22;32305;46.410;17.394;2023-04-21T03:38:22;22.00;43.50
43561;DHT22;32305;46.410;17.394;2023-04-21T03:40:49;21.90;43.50
43561;DHT22;32305;46.410;17.394;2023-04-21T03:43:16;22.00;43.60
43561;DHT22;32305;46.410;17.394;2023-04-21T03:45:43;22.00;43.50
43561;DHT22;32305;46.410;17.394;2023-04-21T03:48:10;22.00;43.50
43561;DHT22;32305;46.410;17.394;2023-04-21T03:50:38;22.00;43.60
43561;DHT22;32305;46.410;17.394;2023-04-21T03:53:05;21.90;43.50
43561;DHT22;32305;46.410;17.394;2023-04-21T03:55:32;22.00;43.60
43561;DHT22;32305;46.410;17.394;2023-04-21T03:57:59;22.00;43.50
43561;DHT22;32305;46.410;17.394;2023-04-21T04:00:26;22.00;43.50
43561;DHT22;32305;46.410;17.394;2023-04-21T04:02:53;22.00;43.50
43561;DHT22;32305;46.410;17.394;2023-04-21T04:05:21;22.00;43.60
43561;DHT22;32305;46.410;17.394;2023-04-21T04:07:48;22.00;43.70
43561;DHT22;32305;46.410;17.394;2023-04-21T04:10:15;22.00;43.80
43561;DHT22;32305;46.410;17.394;2023-04-21T04:12:42;22.00;43.90
43561;DHT22;32305;46.410;17.394;2023-04-21T04:15:09;22.00;44.00
43561;DHT22;32305;46.410;17.394;2023-04-21T04:17:37;22.00;44.40
43561;DHT22;32305;46.410;17.394;2023-04-21T04:20:06;22.00;44.50
43561;DHT22;32305;46.410;17.394;2023-04-21T04:22:34;22.00;44.60
43561;DHT22;32305;46.410;17.394;2023-04-21T04:25:01;22.00;45.10
43561;DHT22;32305;46.410;17.394;2023-04-21T04:27:29;22.00;45.50
43561;DHT22;32305;46.410;17.394;2023-04-21T04:29:57;22.00;45.60
43561;DHT22;32305;46.410;17.394;2023-04-21T04:32:25;22.00;45.40
43561;DHT22;32305;46.410;17.394;2023-04-21T04:34:55;22.00;45.20
43561;DHT22;32305;46.410;17.394;2023-04-21T04:37:22;22.00;45.00
43561;DHT22;32305;46.410;17.394;2023-04-21T04:39:54;22.10;44.80
43561;DHT22;32305;46.410;17.394;2023-04-21T04:42:21;22.00;44.50
43561;DHT22;32305;46.410;17.394;2023-04-21T04:44:52;22.10;44.40
43561;DHT22;32305;46.410;17.394;2023-04-21T04:47:19;22.10;44.20
43561;DHT22;32305;46.410;17.394;2023-04-21T04:49:47;22.20;44.10
43561;DHT22;32305;46.410;17.394;2023-04-21T04:52:14;22.10;44.00
43561;DHT22;32305;46.410;17.394;2023-04-21T04:54:41;22.20;43.90
43561;DHT22;32305;46.410;17.394;2023-04-21T04:57:08;22.10;43.80
43561;DHT22;32305;46.410;17.394;2023-04-21T04:59:35;22.20;43.70
43561;DHT22;32305;46.410;17.394;2023-04-21T05:02:03;22.10;43.60
43561;DHT22;32305;46.410;17.394;2023-04-21T05:04:30;22.20;43.70
43561;DHT22;32305;46.410;17.394;2023-04-21T05:06:57;22.20;43.60
43561;DHT22;32305;46.410;17.394;2023-04-21T05:09:24;22.20;43.50
43561;DHT22;32305;46.410;17.394;2023-04-21T05:11:52;22.30;43.50
43561;DHT22;32305;46.410;17.394;2023-04-21T05:14:19;22.30;43.40
43561;DHT22;32305;46.410;17.394;2023-04-21T05:16:47;22.30;43.40
43561;DHT22;32305;46.410;17.394;2023-04-21T05:19:14;22.30;43.30
43561;DHT22;32305;46.410;17.394;2023-04-21T05:21:44;22.30;43.30
43561;DHT22;32305;46.410;17.394;2023-04-21T05:24:12;22.40;43.30
43561;DHT22;32305;46.410;17.394;2023-04-21T05:26:39;22.30;43.20
43561;DHT22;32305;46.410;17.394;2023-04-21T05:29:06;22.40;43.40
43561;DHT22;32305;46.410;17.394;2023-04-21T05:31:33;22.40;43.60
43561;DHT22;32305;46.410;17.394;2023-04-21T05:34:01;22.40;43.60
43561;DHT22;32305;46.410;17.394;2023-04-21T05:36:29;22.50;43.80
43561;DHT22;32305;46.410;17.394;2023-04-21T05:38:58;22.50;43.70
43561;DHT22;32305;46.410;17.394;2023-04-21T05:41:25;22.50;43.70
43561;DHT22;32305;46.410;17.394;2023-04-21T05:43:53;22.60;43.80
43561;DHT22;32305;46.410;17.394;2023-04-21T05:46:20;22.60;43.80
43561;DHT22;32305;46.410;17.394;2023-04-21T05:48:48;22.60;43.80
43561;DHT22;32305;46.410;17.394;2023-04-21T05:51:15;22.70;43.70
43561;DHT22;32305;46.410;17.394;2023-04-21T05:53:45;22.70;43.60
43561;DHT22;32305;46.410;17.394;2023-04-21T05:56:12;22.70;43.40
43561;DHT22;32305;46.410;17.394;2023-04-21T05:58:40;22.80;43.40
43561;DHT22;32305;46.410;17.394;2023-04-21T06:01:08;22.80;43.30
43561;DHT22;32305;46.410;17.394;2023-04-21T06:03:35;22.90;43.50
43561;DHT22;32305;46.410;17.394;2023-04-21T06:06:05;22.90;43.60
43561;DHT22;32305;46.410;17.394;2023-04-21T06:08:33;22.90;43.60
43561;DHT22;32305;46.410;17.394;2023-04-21T06:11:00;23.00;43.60
43561;DHT22;32305;46.410;17.394;2023-04-21T06:13:28;23.00;43.60
43561;DHT22;32305;46.410;17.394;2023-04-21T06:15:55;23.00;43.70
43561;DHT22;32305;46.410;17.394;2023-04-21T06:18:22;23.10;43.60
43561;DHT22;32305;46.410;17.394;2023-04-21T06:20:51;23.10;43.60
43561;DHT22;32305;46.410;17.394;2023-04-21T06:23:19;23.10;43.70
43561;DHT22;32305;46.410;17.394;2023-04-21T06:25:57;23.20;43.80
43561;DHT22;32305;46.410;17.394;2023-04-21T06:28:25;23.20;43.70
43561;DHT22;32305;46.410;17.394;2023-04-21T06:30:52;23.30;43.50
43561;DHT22;32305;46.410;17.394;2023-04-21T06:33:20;23.30;43.50
43561;DHT22;32305;46.410;17.394;2023-04-21T06:35:47;23.40;43.50
43561;DHT22;32305;46.410;17.394;2023-04-21T06:38:14;23.30;43.50
43561;DHT22;32305;46.410;17.394;2023-04-21T06:40:42;23.40;43.40
43561;DHT22;32305;46.410;17.394;2023-04-21T06:43:09;23.40;43.50
43561;DHT22;32305;46.410;17.394;2023-04-21T06:45:36;23.50;43.50
43561;DHT22;32305;46.410;17.394;2023-04-21T06:48:04;23.60;43.30
43561;DHT22;32305;46.410;17.394;2023-04-21T06:50:31;23.60;43.30
43561;DHT22;32305;46.410;17.394;2023-04-21T06:52:58;23.60;43.20
43561;DHT22;32305;46.410;17.394;2023-04-21T06:55:26;23.70;43.10
43561;DHT22;32305;46.410;17.394;2023-04-21T06:57:53;23.70;42.90
43561;DHT22;32305;46.410;17.394;2023-04-21T07:00:21;23.70;42.80
43561;DHT22;32305;46.410;17.394;2023-04-21T07:02:48;23.80;42.80
43561;DHT22;32305;46.410;17.394;2023-04-21T07:05:16;23.90;42.80
43561;DHT22;32305;46.410;17.394;2023-04-21T07:07:43;23.90;42.80
43561;DHT22;32305;46.410;17.394;2023-04-21T07:10:11;23.90;42.80
43561;DHT22;32305;46.410;17.394;2023-04-21T07:12:38;24.00;42.80
43561;DHT22;32305;46.410;17.394;2023-04-21T07:15:06;24.00;42.80
43561;DHT22;32305;46.410;17.394;2023-04-21T07:17:34;24.00;42.80
43561;DHT22;32305;46.410;17.394;2023-04-21T07:20:01;24.10;42.90
43561;DHT22;32305;46.410;17.394;2023-04-21T07:22:29;24.10;43.10
43561;DHT22;32305;46.410;17.394;2023-04-21T07:24:57;24.20;43.40
43561;DHT22;32305;46.410;17.394;2023-04-21T07:27:24;24.30;43.40
43561;DHT22;32305;46.410;17.394;2023-04-21T07:29:51;24.30;43.20
43561;DHT22;32305;46.410;17.394;2023-04-21T07:32:19;24.30;43.30
43561;DHT22;32305;46.410;17.394;2023-04-21T07:34:46;24.40;42.90
43561;DHT22;32305;46.410;17.394;2023-04-21T07:37:14;24.50;42.70
43561;DHT22;32305;46.410;17.394;2023-04-21T07:39:42;24.50;42.50
43561;DHT22;32305;46.410;17.394;2023-04-21T07:42:09;24.50;42.00
43561;DHT22;32305;46.410;17.394;2023-04-21T07:44:39;24.50;42.00
43561;DHT22;32305;46.410;17.394;2023-04-21T07:47:07;24.60;41.50
43561;DHT22;32305;46.410;17.394;2023-04-21T07:49:34;24.60;41.30
43561;DHT22;32305;46.410;17.394;2023-04-21T07:52:01;24.60;40.90
43561;DHT22;32305;46.410;17.394;2023-04-21T07:54:29;24.60;40.80
43561;DHT22;32305;46.410;17.394;2023-04-21T07:56:57;24.60;41.00
43561;DHT22;32305;46.410;17.394;2023-04-21T07:59:25;24.70;41.30
43561;DHT22;32305;46.410;17.394;2023-04-21T08:01:52;24.60;40.20
43561;DHT22;32305;46.410;17.394;2023-04-21T08:04:19;24.60;40.80
43561;DHT22;32305;46.410;17.394;2023-04-21T08:06:47;24.60;40.70
43561;DHT22;32305;46.410;17.394;2023-04-21T08:09:14;24.60;40.80
43561;DHT22;32305;46.410;17.394;2023-04-21T08:11:43;24.60;38.40
43561;DHT22;32305;46.410;17.394;2023-04-21T08:14:10;24.60;38.50
43561;DHT22;32305;46.410;17.394;2023-04-21T08:16:38;24.50;39.30
43561;DHT22;32305;46.410;17.394;2023-04-21T08:19:08;24.50;39.70
43561;DHT22;32305;46.410;17.394;2023-04-21T08:21:36;24.50;40.00
43561;DHT22;32305;46.410;17.394;2023-04-21T08:24:03;24.60;40.50
43561;DHT22;32305;46.410;17.394;2023-04-21T08:26:31;24.60;40.30
43561;DHT22;32305;46.410;17.394;2023-04-21T08:29:00;24.60;40.30
43561;DHT22;32305;46.410;17.394;2023-04-21T08:31:30;24.60;40.20
43561;DHT22;32305;46.410;17.394;2023-04-21T08:33:58;24.70;40.60
43561;DHT22;32305;46.410;17.394;2023-04-21T08:36:29;24.70;40.40
43561;DHT22;32305;46.410;17.394;2023-04-21T08:38:58;24.70;40.20
43561;DHT22;32305;46.410;17.394;2023-04-21T08:41:25;24.70;40.30
43561;DHT22;32305;46.410;17.394;2023-04-21T08:43:53;24.70;40.40
43561;DHT22;32305;46.410;17.394;2023-04-21T08:46:20;24.70;40.60
43561;DHT22;32305;46.410;17.394;2023-04-21T08:48:49;24.80;40.60
43561;DHT22;32305;46.410;17.394;2023-04-21T08:51:21;24.80;40.30
43561;DHT22;32305;46.410;17.394;2023-04-21T08:53:49;24.80;40.40
43561;DHT22;32305;46.410;17.394;2023-04-21T08:56:17;24.80;40.60
43561;DHT22;32305;46.410;17.394;2023-04-21T08:58:45;24.90;41.00
43561;DHT22;32305;46.410;17.394;2023-04-21T09:01:12;24.90;41.00
43561;DHT22;32305;46.410;17.394;2023-04-21T09:03:39;24.90;40.80
43561;DHT22;32305;46.410;17.394;2023-04-21T09:06:08;24.90;40.60
43561;DHT22;32305;46.410;17.394;2023-04-21T09:08:52;25.00;40.90
43561;DHT22;32305;46.410;17.394;2023-04-21T09:11:19;25.00;40.90
43561;DHT22;32305;46.410;17.394;2023-04-21T09:13:46;25.00;40.70
43561;DHT22;32305;46.410;17.394;2023-04-21T09:16:16;25.00;40.40
43561;DHT22;32305;46.410;17.394;2023-04-21T09:18:44;25.10;40.40
43561;DHT22;32305;46.410;17.394;2023-04-21T09:21:15;25.10;40.30
43561;DHT22;32305;46.410;17.394;2023-04-21T09:23:50;25.10;40.30
43561;DHT22;32305;46.410;17.394;2023-04-21T09:26:20;25.10;40.20
43561;DHT22;32305;46.410;17.394;2023-04-21T09:28:50;25.10;40.20
43561;DHT22;32305;46.410;17.394;2023-04-21T09:31:20;25.10;40.20
43561;DHT22;32305;46.410;17.394;2023-04-21T09:33:56;25.10;40.50
43561;DHT22;32305;46.410;17.394;2023-04-21T09:36:28;25.10;40.40
43561;DHT22;32305;46.410;17.394;2023-04-21T09:38:58;25.10;40.30
43561;DHT22;32305;46.410;17.394;2023-04-21T09:41:32;25.20;40.50
43561;DHT22;32305;46.410;17.394;2023-04-21T09:43:59;25.20;40.60
43561;DHT22;32305;46.410;17.394;2023-04-21T09:46:30;25.20;40.80
43561;DHT22;32305;46.410;17.394;2023-04-21T09:49:00;25.30;40.80
43561;DHT22;32305;46.410;17.394;2023-04-21T09:51:29;25.20;40.70
43561;DHT22;32305;46.410;17.394;2023-04-21T09:54:19;25.30;40.80
43561;DHT22;32305;46.410;17.394;2023-04-21T09:56:52;25.30;40.80
43561;DHT22;32305;46.410;17.394;2023-04-21T09:59:25;25.30;40.90
43561;DHT22;32305;46.410;17.394;2023-04-21T10:01:57;25.30;40.70
43561;DHT22;32305;46.410;17.394;2023-04-21T10:04:27;25.30;40.70
43561;DHT22;32305;46.410;17.394;2023-04-21T10:06:56;25.30;40.60
43561;DHT22;32305;46.410;17.394;2023-04-21T10:09:26;25.30;40.60
43561;DHT22;32305;46.410;17.394;2023-04-21T10:11:57;25.40;41.00
43561;DHT22;32305;46.410;17.394;2023-04-21T10:14:26;25.40;40.80
43561;DHT22;32305;46.410;17.394;2023-04-21T10:17:04;25.40;40.70
43561;DHT22;32305;46.410;17.394;2023-04-21T10:19:34;25.40;40.60
43561;DHT22;32305;46.410;17.394;2023-04-21T10:22:06;25.40;40.60
43561;DHT22;32305;46.410;17.394;2023-04-21T10:24:41;25.40;40.60
43561;DHT22;32305;46.410;17.394;2023-04-21T10:27:10;25.40;40.70
43561;DHT22;32305;46.410;17.394;2023-04-21T10:29:38;25.40;40.70
43561;DHT22;32305;46.410;17.394;2023-04-21T10:32:42;25.40;40.50
43561;DHT22;32305;46.410;17.394;2023-04-21T10:35:21;25.40;40.30
43561;DHT22;32305;46.410;17.394;2023-04-21T10:37:49;25.40;40.20
43561;DHT22;32305;46.410;17.394;2023-04-21T10:40:33;25.40;40.10
43561;DHT22;32305;46.410;17.394;2023-04-21T10:45:58;25.40;40.00
43561;DHT22;32305;46.410;17.394;2023-04-21T10:48:26;25.40;39.90
43561;DHT22;32305;46.410;17.394;2023-04-21T10:50:53;25.40;39.70
43561;DHT22;32305;46.410;17.394;2023-04-21T10:53:24;25.40;39.70
43561;DHT22;32305;46.410;17.394;2023-04-21T10:55:52;25.40;39.40
43561;DHT22;32305;46.410;17.394;2023-04-21T10:58:22;25.40;39.60
43561;DHT22;32305;46.410;17.394;2023-04-21T11:00:53;25.40;39.60
43561;DHT22;32305;46.410;17.394;2023-04-21T11:03:21;25.40;39.20
43561;DHT22;32305;46.410;17.394;2023-04-21T11:05:48;25.40;39.20
43561;DHT22;32305;46.410;17.394;2023-04-21T11:08:16;25.40;39.40
43561;DHT22;32305;46.410;17.394;2023-04-21T11:10:50;25.40;39.60
43561;DHT22;32305;46.410;17.394;2023-04-21T11:13:23;25.40;39.60
43561;DHT22;32305;46.410;17.394;2023-04-21T11:16:03;25.40;39.70
43561;DHT22;32305;46.410;17.394;2023-04-21T11:18:40;25.50;39.60
43561;DHT22;32305;46.410;17.394;2023-04-21T11:21:13;25.50;39.60
43561;DHT22;32305;46.410;17.394;2023-04-21T11:23:50;25.50;39.80
43561;DHT22;32305;46.410;17.394;2023-04-21T11:26:18;25.60;40.30
43561;DHT22;32305;46.410;17.394;2023-04-21T11:28:55;25.60;39.90
43561;DHT22;32305;46.410;17.394;2023-04-21T11:31:27;25.60;40.30
43561;DHT22;32305;46.410;17.394;2023-04-21T11:33:55;25.60;40.60
43561;DHT22;32305;46.410;17.394;2023-04-21T11:36:24;25.60;40.50
43561;DHT22;32305;46.410;17.394;2023-04-21T11:38:51;25.70;40.40
43561;DHT22;32305;46.410;17.394;2023-04-21T11:41:22;25.70;40.30
43561;DHT22;32305;46.410;17.394;2023-04-21T11:43:50;25.70;40.40
43561;DHT22;32305;46.410;17.394;2023-04-21T11:46:23;25.70;40.40
43561;DHT22;32305;46.410;17.394;2023-04-21T11:49:10;25.70;40.80
43561;DHT22;32305;46.410;17.394;2023-04-21T11:51:40;25.70;40.50
43561;DHT22;32305;46.410;17.394;2023-04-21T11:54:10;25.80;40.70
43561;DHT22;32305;46.410;17.394;2023-04-21T11:56:45;25.80;40.70
43561;DHT22;32305;46.410;17.394;2023-04-21T11:59:14;25.80;40.40
43561;DHT22;32305;46.410;17.394;2023-04-21T12:01:47;25.80;40.40
43561;DHT22;32305;46.410;17.394;2023-04-21T12:04:16;25.80;40.90
43561;DHT22;32305;46.410;17.394;2023-04-21T12:06:45;25.80;40.90
43561;DHT22;32305;46.410;17.394;2023-04-21T12:09:19;25.90;40.90
43561;DHT22;32305;46.410;17.394;2023-04-21T12:11:52;25.90;40.60
43561;DHT22;32305;46.410;17.394;2023-04-21T12:14:21;25.90;40.30
43561;DHT22;32305;46.410;17.394;2023-04-21T12:16:52;25.90;40.20
43561;DHT22;32305;46.410;17.394;2023-04-21T12:19:34;25.90;39.90
43561;DHT22;32305;46.410;17.394;2023-04-21T12:22:16;25.90;39.50
43561;DHT22;32305;46.410;17.394;2023-04-21T12:24:48;25.90;39.50
43561;DHT22;32305;46.410;17.394;2023-04-21T12:27:16;25.90;39.60
43561;DHT22;32305;46.410;17.394;2023-04-21T12:29:45;25.90;39.60
43561;DHT22;32305;46.410;17.394;2023-04-21T12:32:12;25.90;39.80
43561;DHT22;32305;46.410;17.394;2023-04-21T12:34:39;25.80;39.90
43561;DHT22;32305;46.410;17.394;2023-04-21T12:37:06;25.80;39.00
43561;DHT22;32305;46.410;17.394;2023-04-21T12:39:33;25.80;38.90
43561;DHT22;32305;46.410;17.394;2023-04-21T12:42:01;25.80;39.20
43561;DHT22;32305;46.410;17.394;2023-04-21T12:44:28;25.80;39.60
43561;DHT22;32305;46.410;17.394;2023-04-21T12:46:55;25.70;39.80
43561;DHT22;32305;46.410;17.394;2023-04-21T12:49:24;25.80;40.00
43561;DHT22;32305;46.410;17.394;2023-04-21T12:51:51;25.70;39.90
43561;DHT22;32305;46.410;17.394;2023-04-21T12:54:18;25.70;39.70
43561;DHT22;32305;46.410;17.394;2023-04-21T12:56:46;25.70;40.70
43561;DHT22;32305;46.410;17.394;2023-04-21T12:59:13;25.70;41.40
43561;DHT22;32305;46.410;17.394;2023-04-21T13:01:40;25.70;41.50
43561;DHT22;32305;46.410;17.394;2023-04-21T13:04:08;25.70;42.30
43561;DHT22;32305;46.410;17.394;2023-04-21T13:06:37;25.70;44.40
43561;DHT22;32305;46.410;17.394;2023-04-21T13:09:05;25.70;44.20
43561;DHT22;32305;46.410;17.394;2023-04-21T13:11:32;25.70;43.80
43561;DHT22;32305;46.410;17.394;2023-04-21T13:13:59;25.60;43.60
43561;DHT22;32305;46.410;17.394;2023-04-21T13:16:26;25.60;43.20
43561;DHT22;32305;46.410;17.394;2023-04-21T13:18:56;25.60;42.90
43561;DHT22;32305;46.410;17.394;2023-04-21T13:21:23;25.60;42.30
43561;DHT22;32305;46.410;17.394;2023-04-21T13:23:50;25.60;41.90
43561;DHT22;32305;46.410;17.394;2023-04-21T13:26:17;25.50;41.40
43561;DHT22;32305;46.410;17.394;2023-04-21T13:28:44;25.50;41.30
43561;DHT22;32305;46.410;17.394;2023-04-21T13:31:11;25.50;41.20
43561;DHT22;32305;46.410;17.394;2023-04-21T13:33:40;25.50;41.10
43561;DHT22;32305;46.410;17.394;2023-04-21T13:36:07;25.50;41.10
43561;DHT22;32305;46.410;17.394;2023-04-21T13:38:38;25.50;41.00
43561;DHT22;32305;46.410;17.394;2023-04-21T13:41:07;25.50;41.60
43561;DHT22;32305;46.410;17.394;2023-04-21T13:43:35;25.40;41.00
43561;DHT22;32305;46.410;17.394;2023-04-21T13:46:02;25.40;41.00
43561;DHT22;32305;46.410;17.394;2023-04-21T13:48:29;25.40;41.00
43561;DHT22;32305;46.410;17.394;2023-04-21T13:50:56;25.40;41.00
43561;DHT22;32305;46.410;17.394;2023-04-21T13:53:23;25.40;41.60
43561;DHT22;32305;46.410;17.394;2023-04-21T13:55:51;25.40;41.00
43561;DHT22;32305;46.410;17.394;2023-04-21T13:58:20;25.40;41.00
43561;DHT22;32305;46.410;17.394;2023-04-21T14:00:47;25.40;41.00
43561;DHT22;32305;46.410;17.394;2023-04-21T14:03:15;25.40;40.90
43561;DHT22;32305;46.410;17.394;2023-04-21T14:05:42;25.40;41.00
43561;DHT22;32305;46.410;17.394;2023-04-21T14:08:10;25.40;41.10
43561;DHT22;32305;46.410;17.394;2023-04-21T14:10:37;25.40;41.10
43561;DHT22;32305;46.410;17.394;2023-04-21T14:13:04;25.40;41.10
43561;DHT22;32305;46.410;17.394;2023-04-21T14:15:32;25.40;41.10
43561;DHT22;32305;46.410;17.394;2023-04-21T14:17:59;25.40;41.20
43561;DHT22;32305;46.410;17.394;2023-04-21T14:20:26;25.40;41.20
43561;DHT22;32305;46.410;17.394;2023-04-21T14:22:54;25.40;41.20
43561;DHT22;32305;46.410;17.394;2023-04-21T14:25:21;25.40;41.10
43561;DHT22;32305;46.410;17.394;2023-04-21T14:27:48;25.40;41.10
43561;DHT22;32305;46.410;17.394;2023-04-21T14:30:15;25.40;41.10
43561;DHT22;32305;46.410;17.394;2023-04-21T14:32:42;25.40;41.10
43561;DHT22;32305;46.410;17.394;2023-04-21T14:35:13;25.40;41.10
43561;DHT22;32305;46.410;17.394;2023-04-21T14:37:40;25.40;41.00
43561;DHT22;32305;46.410;17.394;2023-04-21T14:40:08;25.40;41.00
43561;DHT22;32305;46.410;17.394;2023-04-21T14:42:35;25.30;41.00
43561;DHT22;32305;46.410;17.394;2023-04-21T14:45:02;25.30;40.90
43561;DHT22;32305;46.410;17.394;2023-04-21T14:47:30;25.30;40.90
43561;DHT22;32305;46.410;17.394;2023-04-21T14:49:57;25.30;40.90
43561;DHT22;32305;46.410;17.394;2023-04-21T14:52:24;25.30;40.90
43561;DHT22;32305;46.410;17.394;2023-04-21T14:54:52;25.30;40.90
43561;DHT22;32305;46.410;17.394;2023-04-21T14:57:20;25.30;41.00
43561;DHT22;32305;46.410;17.394;2023-04-21T14:59:51;25.20;40.90
43561;DHT22;32305;46.410;17.394;2023-04-21T15:02:19;25.20;40.90
43561;DHT22;32305;46.410;17.394;2023-04-21T15:04:48;25.20;40.80
43561;DHT22;32305;46.410;17.394;2023-04-21T15:07:15;25.20;40.80
43561;DHT22;32305;46.410;17.394;2023-04-21T15:09:48;25.20;40.90
43561;DHT22;32305;46.410;17.394;2023-04-21T15:12:15;25.20;40.80
43561;DHT22;32305;46.410;17.394;2023-04-21T15:14:43;25.20;40.80
43561;DHT22;32305;46.410;17.394;2023-04-21T15:17:10;25.20;40.80
43561;DHT22;32305;46.410;17.394;2023-04-21T15:19:37;25.20;40.80
43561;DHT22;32305;46.410;17.394;2023-04-21T15:22:04;25.20;40.70
43561;DHT22;32305;46.410;17.394;2023-04-21T15:24:32;25.20;40.70
43561;DHT22;32305;46.410;17.394;2023-04-21T15:26:59;25.20;40.70